createdAt,value
2022-10-11T00:00:45.660Z,3.00
2022-10-11T00:03:14.564Z,3.10
2022-10-11T00:05:43.988Z,3.13
2022-10-11T00:08:12.499Z,2.80
2022-10-11T00:10:41.139Z,2.70
2022-10-11T00:13:10.619Z,2.97
2022-10-11T00:15:41.423Z,2.75
2022-10-11T00:18:09.520Z,2.67
2022-10-11T00:20:37.654Z,2.65
2022-10-11T00:23:05.800Z,2.75
2022-10-11T00:25:34.049Z,2.50
2022-10-11T00:28:02.133Z,2.80
2022-10-11T00:30:33.063Z,2.60
2022-10-11T00:33:01.310Z,2.67
2022-10-11T00:35:29.421Z,2.92
2022-10-11T00:37:58.275Z,2.42
2022-10-11T00:40:26.489Z,2.90
2022-10-11T00:42:54.612Z,2.80
2022-10-11T00:45:54.138Z,3.00
2022-10-11T00:48:27.454Z,3.03
2022-10-11T00:50:56.909Z,3.00
2022-10-11T00:53:25.534Z,2.67
2022-10-11T00:55:57.983Z,3.08
2022-10-11T00:58:26.237Z,2.80
2022-10-11T01:00:55.947Z,2.50
2022-10-11T01:03:27.972Z,2.85
2022-10-11T01:05:56.707Z,2.80
2022-10-11T01:08:25.581Z,2.70
2022-10-11T01:10:53.849Z,2.90
2022-10-11T01:13:30.711Z,3.10
2022-10-11T01:16:05.653Z,2.60
2022-10-11T01:18:40.859Z,2.60
2022-10-11T01:21:14.775Z,2.85
2022-10-11T01:24:15.604Z,2.70
2022-10-11T01:27:25.627Z,2.65
2022-10-11T01:30:04.882Z,2.70
2022-10-11T01:32:41.712Z,2.92
2022-10-11T01:35:17.351Z,2.30
2022-10-11T01:37:51.320Z,2.45
2022-10-11T01:40:24.494Z,2.50
2022-10-11T01:42:54.840Z,2.47
2022-10-11T01:45:23.337Z,2.70
2022-10-11T01:48:05.622Z,2.30
2022-10-11T01:50:43.977Z,2.80
2022-10-11T01:53:29.724Z,2.35
2022-10-11T01:56:06.880Z,2.42
2022-10-11T01:58:45.725Z,2.40
2022-10-11T02:01:24.094Z,2.50
2022-10-11T02:04:02.725Z,2.40
2022-10-11T02:06:36.678Z,2.90
2022-10-11T02:09:30.511Z,2.70
2022-10-11T02:12:08.471Z,2.40
2022-10-11T02:14:40.617Z,2.55
2022-10-11T02:17:12.687Z,2.33
2022-10-11T02:19:45.593Z,3.00
2022-10-11T02:22:19.357Z,3.45
2022-10-11T02:24:50.541Z,2.70
2022-10-11T02:27:22.715Z,3.20
2022-10-11T02:29:53.880Z,3.17
2022-10-11T02:32:24.585Z,2.70
2022-10-11T02:34:56.827Z,2.75
2022-10-11T02:37:31.438Z,2.40
2022-10-11T02:40:10.975Z,2.47
2022-10-11T02:42:44.732Z,2.97
2022-10-11T02:45:17.989Z,3.40
2022-10-11T02:47:46.923Z,3.00
2022-10-11T02:50:17.512Z,2.80
2022-10-11T02:52:45.665Z,2.88
2022-10-11T02:55:13.785Z,2.90
2022-10-11T02:57:41.897Z,3.20
2022-10-11T03:00:11.128Z,2.50
2022-10-11T03:02:39.217Z,2.85
2022-10-11T03:05:07.698Z,3.38
2022-10-11T03:07:37.210Z,2.92
2022-10-11T03:10:06.043Z,2.50
2022-10-11T03:12:34.212Z,3.13
2022-10-11T03:15:02.346Z,2.83
2022-10-11T03:17:36.664Z,3.13
2022-10-11T03:20:06.301Z,2.90
2022-10-11T03:22:36.009Z,2.60
2022-10-11T03:25:04.983Z,2.90
2022-10-11T03:27:33.231Z,2.78
2022-10-11T03:30:01.822Z,2.95
2022-10-11T03:32:30.853Z,2.90
2022-10-11T03:34:58.953Z,3.33
2022-10-11T03:37:27.363Z,3.10
2022-10-11T03:39:56.805Z,3.13
2022-10-11T03:42:24.938Z,3.20
2022-10-11T03:44:53.052Z,2.80
2022-10-11T03:47:21.201Z,2.95
2022-10-11T03:49:49.278Z,3.50
2022-10-11T03:52:17.441Z,3.92
2022-10-11T03:54:45.540Z,2.70
2022-10-11T03:57:15.548Z,2.92
2022-10-11T03:59:43.671Z,2.87
2022-10-11T04:02:11.919Z,2.45
2022-10-11T04:04:40.129Z,2.80
2022-10-11T04:07:08.680Z,2.63
2022-10-11T04:09:36.815Z,2.90
2022-10-11T04:12:05.421Z,2.90
2022-10-11T04:14:35.063Z,2.50
2022-10-11T04:17:03.188Z,3.33
2022-10-11T04:19:31.265Z,2.90
2022-10-11T04:21:59.412Z,3.28
2022-10-11T04:24:27.561Z,2.88
2022-10-11T04:26:55.781Z,3.00
2022-10-11T04:29:25.119Z,2.70
2022-10-11T04:31:56.177Z,2.72
2022-10-11T04:34:24.516Z,3.30
2022-10-11T04:36:52.805Z,2.70
2022-10-11T04:39:20.901Z,2.60
2022-10-11T04:41:48.998Z,3.40
2022-10-11T04:44:17.124Z,2.90
2022-10-11T04:46:45.196Z,2.70
2022-10-11T04:49:14.878Z,3.25
2022-10-11T04:51:44.104Z,3.17
2022-10-11T04:54:12.285Z,2.57
2022-10-11T04:56:40.344Z,2.60
2022-10-11T04:59:08.490Z,2.90
2022-10-11T05:01:36.647Z,3.10
2022-10-11T05:04:05.163Z,3.20
2022-10-11T05:06:34.623Z,3.00
2022-10-11T05:09:02.699Z,3.60
2022-10-11T05:11:30.852Z,5.20
2022-10-11T05:13:59.011Z,4.90
2022-10-11T05:16:27.149Z,4.93
2022-10-11T05:18:55.289Z,5.20
2022-10-11T05:21:24.903Z,5.03
2022-10-11T05:23:56.462Z,7.05
2022-10-11T05:26:26.177Z,6.55
2022-10-11T05:28:54.830Z,5.87
2022-10-11T05:31:23.417Z,8.10
2022-10-11T05:33:51.691Z,6.15
2022-10-11T05:36:19.933Z,5.20
2022-10-11T05:38:48.316Z,6.90
2022-10-11T05:41:18.177Z,7.28
2022-10-11T05:43:46.355Z,6.53
2022-10-11T05:46:14.744Z,5.97
2022-10-11T05:48:42.861Z,5.97
2022-10-11T05:51:12.588Z,7.00
2022-10-11T05:53:40.805Z,6.88
2022-10-11T05:56:20.259Z,10.18
2022-10-11T05:58:48.752Z,10.63
2022-10-11T06:01:21.975Z,9.98
2022-10-11T06:03:50.510Z,10.43
2022-10-11T06:06:19.191Z,10.57
2022-10-11T06:08:47.894Z,10.90
2022-10-11T06:11:19.563Z,10.57
2022-10-11T06:13:47.821Z,10.23
2022-10-11T06:16:16.368Z,10.75
2022-10-11T06:18:44.607Z,12.23
2022-10-11T06:21:13.129Z,12.40
2022-10-11T06:23:41.253Z,11.60
2022-10-11T06:26:10.326Z,13.33
2022-10-11T06:28:40.127Z,14.87
2022-10-11T06:31:08.774Z,15.85
2022-10-11T06:33:37.195Z,13.65
2022-10-11T06:36:08.860Z,13.20
2022-10-11T06:38:42.306Z,12.57
2022-10-11T06:41:15.303Z,11.67
2022-10-11T06:43:44.801Z,11.57
2022-10-11T06:46:13.212Z,12.15
2022-10-11T06:48:43.360Z,13.67
2022-10-11T06:51:11.766Z,16.20
2022-10-11T06:53:39.974Z,15.53
2022-10-11T06:56:10.143Z,13.93
2022-10-11T06:58:38.733Z,12.63
2022-10-11T07:01:10.280Z,11.63
2022-10-11T07:03:38.732Z,11.55
2022-10-11T07:06:09.578Z,10.55
2022-10-11T07:08:38.980Z,11.13
2022-10-11T07:11:08.748Z,9.80
2022-10-11T07:13:37.668Z,10.68
2022-10-11T07:16:09.735Z,10.27
2022-10-11T07:18:38.048Z,8.65
2022-10-11T07:21:08.411Z,8.70
2022-10-11T07:23:36.790Z,8.75
2022-10-11T07:26:05.586Z,9.32
2022-10-11T07:28:34.972Z,8.70
2022-10-11T07:31:06.520Z,9.52
2022-10-11T07:33:36.151Z,8.00
2022-10-11T07:36:05.325Z,8.00
2022-10-11T07:38:33.628Z,8.05
2022-10-11T07:41:06.358Z,8.30
2022-10-11T07:43:35.248Z,8.35
2022-10-11T07:46:19.711Z,7.70
2022-10-11T07:48:50.389Z,7.80
2022-10-11T07:51:20.583Z,7.40
2022-10-11T07:53:50.668Z,7.80
2022-10-11T07:56:20.765Z,9.07
2022-10-11T07:58:52.360Z,7.95
2022-10-11T08:01:21.639Z,9.20
2022-10-11T08:03:51.883Z,9.60
2022-10-11T08:06:24.413Z,10.68
2022-10-11T08:08:52.651Z,8.93
2022-10-11T08:11:23.280Z,11.40
2022-10-11T08:13:51.538Z,12.20
2022-10-11T08:16:20.461Z,11.40
2022-10-11T08:18:48.989Z,10.13
2022-10-11T08:21:20.143Z,11.32
2022-10-11T08:23:48.374Z,10.75
2022-10-11T08:26:16.469Z,9.60
2022-10-11T08:28:44.744Z,8.80
2022-10-11T08:31:14.269Z,8.10
2022-10-11T08:33:42.425Z,8.30
2022-10-11T08:36:11.419Z,8.38
2022-10-11T08:38:41.391Z,8.40
2022-10-11T08:41:33.223Z,9.50
2022-10-11T08:44:15.571Z,8.88
2022-10-11T08:46:47.617Z,8.73
2022-10-11T08:49:19.797Z,8.13
2022-10-11T08:51:52.000Z,7.60
2022-10-11T08:54:31.207Z,8.07
2022-10-11T08:56:59.317Z,7.35
2022-10-11T08:59:33.869Z,6.65
2022-10-11T09:02:11.516Z,6.90
2022-10-11T09:04:40.518Z,6.70
2022-10-11T09:07:19.137Z,7.45
2022-10-11T09:10:04.592Z,6.47
2022-10-11T09:12:42.429Z,5.90
2022-10-11T09:15:19.116Z,5.70
2022-10-11T09:18:03.627Z,6.28
2022-10-11T09:20:45.207Z,6.20
2022-10-11T09:23:24.576Z,6.18
2022-10-11T09:25:59.636Z,5.25
2022-10-11T09:28:37.799Z,5.87
2022-10-11T09:31:11.360Z,5.43
2022-10-11T09:33:43.329Z,4.80
2022-10-11T09:36:19.910Z,4.85
2022-10-11T09:38:55.436Z,4.90
2022-10-11T09:41:31.484Z,4.50
2022-10-11T09:43:59.678Z,4.38
2022-10-11T09:46:36.693Z,4.28
2022-10-11T09:49:08.543Z,5.45
2022-10-11T09:51:37.693Z,4.63
2022-10-11T09:54:06.981Z,3.50
2022-10-11T09:56:43.074Z,3.08
2022-10-11T09:59:25.153Z,2.83
2022-10-11T10:02:17.954Z,2.83
2022-10-11T10:05:03.919Z,3.50
2022-10-11T10:07:35.001Z,2.42
2022-10-11T10:10:27.971Z,2.50
2022-10-11T10:12:58.913Z,1.95
2022-10-11T10:15:30.693Z,2.40
2022-10-11T10:17:59.925Z,2.67
2022-10-11T10:20:31.666Z,2.43
2022-10-11T10:23:02.210Z,2.00
2022-10-11T10:25:39.597Z,1.70
2022-10-11T10:28:22.664Z,1.50
2022-10-11T10:30:56.147Z,1.80
2022-10-11T10:33:25.616Z,1.60
2022-10-11T10:35:57.595Z,1.33
2022-10-11T10:38:30.046Z,1.50
2022-10-11T10:41:02.830Z,1.10
2022-10-11T10:43:35.683Z,1.33
2022-10-11T10:46:13.896Z,0.90
2022-10-11T10:49:28.387Z,1.30
2022-10-11T10:51:45.734Z,1.20
2022-10-11T10:54:26.063Z,1.30
2022-10-11T10:56:58.451Z,1.50
2022-10-11T10:59:45.452Z,1.40
2022-10-11T11:02:39.621Z,1.30
2022-10-11T11:05:22.115Z,1.17
2022-10-11T11:07:55.417Z,1.80
2022-10-11T11:10:26.365Z,1.13
2022-10-11T11:13:06.905Z,1.45
2022-10-11T11:15:41.467Z,1.50
2022-10-11T11:18:25.898Z,1.90
2022-10-11T11:21:09.870Z,1.90
2022-10-11T11:23:44.582Z,1.25
2022-10-11T11:26:19.298Z,1.15
2022-10-11T11:29:02.488Z,1.40
2022-10-11T11:32:04.326Z,1.20
2022-10-11T11:34:37.951Z,1.57
2022-10-11T11:37:10.341Z,1.02
2022-10-11T11:39:43.895Z,1.60
2022-10-11T11:42:16.722Z,1.70
2022-10-11T11:44:48.169Z,1.20
2022-10-11T11:47:25.079Z,1.10
2022-10-11T11:49:59.143Z,1.27
2022-10-11T11:52:31.846Z,1.47
2022-10-11T11:55:09.386Z,1.60
2022-10-11T11:57:48.819Z,1.40
2022-10-11T12:00:20.886Z,1.80
2022-10-11T12:02:54.553Z,1.33
2022-10-11T12:05:26.233Z,1.20
2022-10-11T12:08:00.542Z,1.70
2022-10-11T12:10:37.112Z,1.38
2022-10-11T12:13:16.370Z,1.40
2022-10-11T12:15:58.842Z,1.42
2022-10-11T12:18:29.065Z,1.20
2022-10-11T12:21:05.846Z,1.02
2022-10-11T12:23:44.425Z,1.40
2022-10-11T12:26:46.325Z,1.17
2022-10-11T12:29:43.458Z,1.20
2022-10-11T12:32:53.574Z,1.42
2022-10-11T12:35:52.360Z,1.17
2022-10-11T12:38:23.668Z,1.50
2022-10-11T12:40:54.324Z,1.50
2022-10-11T12:43:32.253Z,1.10
2022-10-11T12:46:33.525Z,1.27
2022-10-11T12:49:22.828Z,0.75
2022-10-11T12:52:00.159Z,1.30
2022-10-11T12:55:01.475Z,1.40
2022-10-11T12:57:57.023Z,1.30
2022-10-11T13:00:29.000Z,2.10
2022-10-11T13:02:57.607Z,1.08
2022-10-11T13:05:29.997Z,0.93
2022-10-11T13:08:05.320Z,1.00
2022-10-11T13:10:43.509Z,1.40
2022-10-11T13:13:18.857Z,1.20
2022-10-11T13:15:47.165Z,0.90
2022-10-11T13:18:16.407Z,1.33
2022-10-11T13:20:44.665Z,1.30
2022-10-11T13:23:24.466Z,1.10
2022-10-11T13:25:53.569Z,1.20
2022-10-11T13:28:22.534Z,1.17
2022-10-11T13:30:55.355Z,0.80
2022-10-11T13:33:32.092Z,1.50
2022-10-11T13:36:01.722Z,1.30
2022-10-11T13:38:33.206Z,1.20
2022-10-11T13:41:04.057Z,0.70
2022-10-11T13:43:33.189Z,1.13
2022-10-11T13:46:05.054Z,1.33
2022-10-11T13:48:39.727Z,1.30
2022-10-11T13:51:09.190Z,0.90
2022-10-11T13:53:57.043Z,1.40
2022-10-11T13:56:25.424Z,1.08
2022-10-11T13:58:55.213Z,1.63
2022-10-11T14:01:26.888Z,1.30
2022-10-11T14:03:58.302Z,1.10
2022-10-11T14:06:39.650Z,1.20
2022-10-11T14:09:18.005Z,1.40
2022-10-11T14:11:46.318Z,0.85
2022-10-11T14:14:41.909Z,1.10
2022-10-11T14:17:16.449Z,1.20
2022-10-11T14:19:45.909Z,1.00
2022-10-11T14:22:15.938Z,1.00
2022-10-11T14:24:48.702Z,1.00
2022-10-11T14:27:19.482Z,0.90
2022-10-11T14:30:00.458Z,1.20
2022-10-11T14:32:37.500Z,1.00
2022-10-11T14:35:06.887Z,0.90
2022-10-11T14:37:40.477Z,0.70
2022-10-11T14:40:14.928Z,0.90
2022-10-11T14:42:43.020Z,0.80
2022-10-11T14:45:11.930Z,1.00
2022-10-11T14:47:42.941Z,1.13
2022-10-11T14:50:33.065Z,1.15
2022-10-11T14:53:01.416Z,1.30
2022-10-11T14:55:31.724Z,1.10
2022-10-11T14:57:59.818Z,0.90
2022-10-11T15:00:29.648Z,1.10
2022-10-11T15:02:58.172Z,1.10
2022-10-11T15:05:33.498Z,1.35
2022-10-11T15:08:02.456Z,1.50
2022-10-11T15:10:35.696Z,0.90
2022-10-11T15:13:05.009Z,1.20
2022-10-11T15:15:36.204Z,1.10
2022-10-11T15:18:06.212Z,0.90
2022-10-11T15:20:36.982Z,1.02
2022-10-11T15:23:06.393Z,1.02
2022-10-11T15:25:36.207Z,0.80
2022-10-11T15:28:05.018Z,1.38
2022-10-11T15:30:41.094Z,1.08
2022-10-11T15:33:09.773Z,1.10
2022-10-11T15:35:37.916Z,0.82
2022-10-11T15:38:06.015Z,1.08
2022-10-11T15:40:37.346Z,0.95
2022-10-11T15:43:05.831Z,0.90
2022-10-11T15:45:34.689Z,0.90
2022-10-11T15:48:02.893Z,1.02
2022-10-11T15:50:37.387Z,2.00
2022-10-11T15:53:07.601Z,1.85
2022-10-11T15:55:40.121Z,1.30
2022-10-11T15:58:13.465Z,0.90
2022-10-11T16:00:41.677Z,1.17
2022-10-11T16:03:13.218Z,2.20
2022-10-11T16:05:42.925Z,2.90
2022-10-11T16:08:12.212Z,2.33
2022-10-11T16:10:41.977Z,2.80
2022-10-11T16:13:11.161Z,2.15
2022-10-11T16:15:40.993Z,2.00
2022-10-11T16:18:11.059Z,1.40
2022-10-11T16:20:39.740Z,2.30
2022-10-11T16:23:08.633Z,1.40
2022-10-11T16:25:37.538Z,1.45
2022-10-11T16:28:08.274Z,1.38
2022-10-11T16:30:39.654Z,2.35
2022-10-11T16:33:07.764Z,1.77
2022-10-11T16:35:35.934Z,2.03
2022-10-11T16:38:04.257Z,2.00
2022-10-11T16:40:33.654Z,1.88
2022-10-11T16:43:07.994Z,1.97
2022-10-11T16:45:37.945Z,2.50
2022-10-11T16:48:06.638Z,3.75
2022-10-11T16:50:39.297Z,3.75
2022-10-11T16:53:07.692Z,19.02
2022-10-11T16:55:35.865Z,18.38
2022-10-11T16:58:04.001Z,19.70
2022-10-11T17:00:32.204Z,15.95
2022-10-11T17:03:01.755Z,5.05
2022-10-11T17:05:29.834Z,5.50
2022-10-11T17:07:57.921Z,4.43
2022-10-11T17:10:39.270Z,2.40
2022-10-11T17:13:08.527Z,2.22
2022-10-11T17:15:37.228Z,2.60
2022-10-11T17:18:07.531Z,2.30
2022-10-11T17:20:35.701Z,2.50
2022-10-11T17:23:03.802Z,2.70
2022-10-11T17:25:31.915Z,3.10
2022-10-11T17:28:00.056Z,3.80
2022-10-11T17:30:28.153Z,4.80
2022-10-11T17:32:56.350Z,3.33
2022-10-11T17:35:26.076Z,3.28
2022-10-11T17:37:54.199Z,3.70
2022-10-11T17:40:22.379Z,3.00
2022-10-11T17:42:50.492Z,2.53
2022-10-11T17:45:18.932Z,2.85
2022-10-11T17:47:47.053Z,4.05
2022-10-11T17:50:15.196Z,6.85
2022-10-11T17:52:44.683Z,3.30
2022-10-11T17:55:12.824Z,3.00
2022-10-11T17:57:40.903Z,2.40
2022-10-11T18:00:10.452Z,3.42
2022-10-11T18:02:40.128Z,3.60
2022-10-11T18:05:09.282Z,3.20
2022-10-11T18:07:37.366Z,2.40
2022-10-11T18:10:07.803Z,3.60
2022-10-11T18:12:35.937Z,2.67
2022-10-11T18:15:04.280Z,2.80
2022-10-11T18:17:32.480Z,3.28
2022-10-11T18:20:00.597Z,2.97
2022-10-11T18:22:28.770Z,3.88
2022-10-11T18:24:56.897Z,4.90
2022-10-11T18:27:26.407Z,4.82
2022-10-11T18:29:55.257Z,7.10
2022-10-11T18:32:23.368Z,6.63
2022-10-11T18:34:51.447Z,4.00
2022-10-11T18:37:19.581Z,4.30
2022-10-11T18:39:47.829Z,5.40
2022-10-11T18:42:15.929Z,10.23
2022-10-11T18:44:45.438Z,11.55
2022-10-11T18:47:13.635Z,9.75
2022-10-11T18:49:41.764Z,7.15
2022-10-11T18:52:09.849Z,5.10
2022-10-11T18:54:37.925Z,5.07
2022-10-11T18:57:06.101Z,4.90
2022-10-11T18:59:34.307Z,5.30
2022-10-11T19:02:04.887Z,5.80
2022-10-11T19:04:34.309Z,5.78
2022-10-11T19:07:02.435Z,5.72
2022-10-11T19:09:30.773Z,6.00
2022-10-11T19:11:59.815Z,5.78
2022-10-11T19:14:30.216Z,6.45
2022-10-11T19:16:58.672Z,8.25
2022-10-11T19:19:30.876Z,11.23
2022-10-11T19:21:59.342Z,7.50
2022-10-11T19:24:29.359Z,6.50
2022-10-11T19:27:02.234Z,7.60
2022-10-11T19:29:31.479Z,7.50
2022-10-11T19:32:01.409Z,6.33
2022-10-11T19:34:32.666Z,6.50
2022-10-11T19:37:03.161Z,6.13
2022-10-11T19:39:31.680Z,5.10
2022-10-11T19:42:00.291Z,5.95
2022-10-11T19:44:28.410Z,8.32
2022-10-11T19:46:58.318Z,5.80
2022-10-11T19:49:29.808Z,5.38
2022-10-11T19:51:57.933Z,6.03
2022-10-11T19:54:26.349Z,5.90
2022-10-11T19:56:54.548Z,5.55
2022-10-11T19:59:22.689Z,5.40
2022-10-11T20:01:53.044Z,6.00
2022-10-11T20:04:50.634Z,6.55
2022-10-11T20:07:11.779Z,5.70
2022-10-11T20:09:39.842Z,5.30
2022-10-11T20:12:08.447Z,6.72
2022-10-11T20:14:36.616Z,8.30
2022-10-11T20:17:04.853Z,8.38
2022-10-11T20:19:32.940Z,7.70
2022-10-11T20:22:01.935Z,6.13
2022-10-11T20:24:33.567Z,6.00
2022-10-11T20:27:03.585Z,6.37
2022-10-11T20:29:31.811Z,6.60
2022-10-11T20:32:00.101Z,6.47
2022-10-11T20:34:28.752Z,6.47
2022-10-11T20:36:56.954Z,6.90
2022-10-11T20:39:25.380Z,7.22
2022-10-11T20:41:54.936Z,7.75
2022-10-11T20:44:23.150Z,8.20
2022-10-11T20:46:51.360Z,7.55
2022-10-11T20:49:20.675Z,7.70
2022-10-11T20:51:49.247Z,8.50
2022-10-11T20:54:17.368Z,8.32
2022-10-11T20:56:45.547Z,8.55
2022-10-11T20:59:15.062Z,8.40
2022-10-11T21:01:44.082Z,8.32
2022-10-11T21:04:18.849Z,7.75
2022-10-11T21:06:49.323Z,7.57
2022-10-11T21:09:19.111Z,8.70
2022-10-11T21:11:47.389Z,8.93
2022-10-11T21:14:17.261Z,8.20
2022-10-11T21:16:45.380Z,7.32
2022-10-11T21:19:15.536Z,6.70
2022-10-11T21:21:44.606Z,6.55
2022-10-11T21:24:14.600Z,5.40
2022-10-11T21:26:42.702Z,5.07
2022-10-11T21:29:10.780Z,4.88
2022-10-11T21:31:40.876Z,4.50
2022-10-11T21:34:08.991Z,4.50
2022-10-11T21:36:37.089Z,4.18
2022-10-11T21:39:05.642Z,4.43
2022-10-11T21:41:34.043Z,3.60
2022-10-11T21:44:02.583Z,3.83
2022-10-11T21:47:01.189Z,3.90
2022-10-11T21:49:21.955Z,3.60
2022-10-11T21:51:50.105Z,4.10
2022-10-11T21:54:18.622Z,4.60
2022-10-11T21:56:46.791Z,3.30
2022-10-11T21:59:15.170Z,3.83
2022-10-11T22:01:44.941Z,4.50
2022-10-11T22:04:13.450Z,4.17
2022-10-11T22:06:44.554Z,3.97
2022-10-11T22:09:12.722Z,4.63
2022-10-11T22:11:40.817Z,4.60
2022-10-11T22:14:08.894Z,4.57
2022-10-11T22:16:37.006Z,4.60
2022-10-11T22:19:05.318Z,4.68
2022-10-11T22:21:33.550Z,4.65
2022-10-11T22:24:03.139Z,4.90
2022-10-11T22:26:32.168Z,5.40
2022-10-11T22:29:00.984Z,4.30
2022-10-11T22:31:30.130Z,4.93
2022-10-11T22:34:00.046Z,4.50
2022-10-11T22:36:30.367Z,4.53
2022-10-11T22:38:59.155Z,4.10
2022-10-11T22:41:28.908Z,4.53
2022-10-11T22:43:57.169Z,4.20
2022-10-11T22:46:25.428Z,4.22
2022-10-11T22:48:53.553Z,4.20
2022-10-11T22:51:21.704Z,4.40
2022-10-11T22:53:49.791Z,3.80
2022-10-11T22:56:18.070Z,3.65
2022-10-11T22:58:47.474Z,3.78
2022-10-11T23:01:16.904Z,4.10
2022-10-11T23:03:48.437Z,3.50
2022-10-11T23:06:16.686Z,4.10
2022-10-11T23:08:45.326Z,4.20
2022-10-11T23:11:13.719Z,3.60
2022-10-11T23:13:41.806Z,4.10
2022-10-11T23:16:13.269Z,3.70
2022-10-11T23:18:41.726Z,3.50
2022-10-11T23:21:10.116Z,4.10
2022-10-11T23:23:39.586Z,4.60
2022-10-11T23:26:09.293Z,3.53
2022-10-11T23:28:37.642Z,3.78
2022-10-11T23:31:12.453Z,3.90
2022-10-11T23:33:40.678Z,4.30
2022-10-11T23:36:15.175Z,3.88
2022-10-11T23:38:43.437Z,3.70
2022-10-11T23:41:12.025Z,3.63
2022-10-11T23:43:40.190Z,4.35
2022-10-11T23:46:08.259Z,3.83
2022-10-11T23:48:37.711Z,4.00
2022-10-11T23:51:06.061Z,4.10
2022-10-11T23:53:34.525Z,3.72
2022-10-11T23:56:02.639Z,3.53
2022-10-11T23:58:30.760Z,3.50
